Time;durP1;ratioP1;P1;durP2;ratioP2;P2;SDS_P1;SDS_P2;PMS_P1;PMS_P2;Temp;Humidity;BMP_temperature;BMP_pressure;BME280_temperature;BME280_humidity;BME280_pressure;Samples;Min_cycle;Max_cycle;Signal;HPM_P1;HPM_P2
2022/04/24 00:00:30;;;;;;;;;;;;;;;17.27;40.29;100556.09;5033097;28;19913;-67
2022/04/24 00:02:55;;;;;;;;;;;;;;;17.10;40.75;100552.06;5033568;28;19943;-69
2022/04/24 00:05:20;;;;;;;;;;;;;;;17.13;40.93;100552.34;5032249;28;19917;-69
2022/04/24 00:07:45;;;;;;;;;;;;;;;17.07;40.20;100547.19;5033064;28;19963;-70
2022/04/24 00:10:11;;;;;;;;;;;;;;;17.29;40.44;100543.06;5033286;28;19917;-68
2022/04/24 00:12:36;;;;;;;;;;;;;;;17.10;40.78;100549.38;5033163;28;20380;-70
2022/04/24 00:15:02;;;;;;;;;;;;;;;17.07;40.75;100549.91;5033271;28;20440;-68
2022/04/24 00:17:27;;;;;;;;;;;;;;;17.05;40.65;100544.75;5032738;28;19924;-70
2022/04/24 00:19:52;;;;;;;;;;;;;;;16.66;41.79;100549.13;5032870;28;19917;-69
2022/04/24 00:22:17;;;;;;;;;;;;;;;16.68;41.75;100555.94;5032721;28;19971;-69
2022/04/24 00:24:43;;;;;;;;;;;;;;;16.79;41.49;100559.44;5032597;28;19913;-67
2022/04/24 00:27:08;;;;;;;;;;;;;;;16.94;40.73;100551.28;5033139;28;19962;-67
2022/04/24 00:29:34;;;;;;;;;;;;;;;17.05;40.33;100544.75;5032791;28;20008;-67
2022/04/24 00:31:59;;;;;;;;;;;;;;;16.63;41.43;100560.50;5032619;28;19917;-67
2022/04/24 00:34:24;;;;;;;;;;;;;;;16.79;41.31;100559.44;5032707;28;19913;-68
2022/04/24 00:36:49;;;;;;;;;;;;;;;16.92;40.81;100556.19;5055703;28;19987;-68
2022/04/24 00:39:15;;;;;;;;;;;;;;;17.18;40.12;100551.50;5032772;28;20265;-69
2022/04/24 00:41:44;;;;;;;;;;;;;;;16.98;41.01;100551.56;5032393;28;19941;-68
2022/04/24 00:44:09;;;;;;;;;;;;;;;17.00;40.43;100560.22;5032439;28;19921;-69
2022/04/24 00:46:50;;;;;;;;;;;;;;;16.30;42.40;100561.00;5032050;28;19913;-67
2022/04/24 00:49:16;;;;;;;;;;;;;;;16.58;41.52;100555.09;5032238;28;19917;-69
2022/04/24 00:51:43;;;;;;;;;;;;;;;16.30;42.49;100553.69;5032109;28;19916;-66
2022/04/24 00:54:09;;;;;;;;;;;;;;;16.09;42.89;100552.06;5033127;28;19953;-67
2022/04/24 00:56:35;;;;;;;;;;;;;;;16.42;41.79;100556.16;5032673;28;19971;-68
2022/04/24 00:59:02;;;;;;;;;;;;;;;16.20;42.39;100553.69;5032612;28;20288;-69
2022/04/24 01:01:27;;;;;;;;;;;;;;;16.22;42.26;100553.41;5032688;28;19917;-67
2022/04/24 01:03:53;;;;;;;;;;;;;;;16.27;42.27;100550.72;5032238;28;19921;-67
2022/04/24 01:06:19;;;;;;;;;;;;;;;16.62;41.12;100554.31;5033094;28;19917;-68
2022/04/24 01:08:44;;;;;;;;;;;;;;;16.19;42.35;100557.50;5033271;28;19905;-67
2022/04/24 01:11:09;;;;;;;;;;;;;;;15.85;43.35;100556.31;5032406;28;19913;-66
2022/04/24 01:13:35;;;;;;;;;;;;;;;16.08;42.25;100555.81;5032565;28;19924;-68
2022/04/24 01:16:00;;;;;;;;;;;;;;;15.97;42.90;100546.06;5032047;28;19917;-68
2022/04/24 01:18:25;;;;;;;;;;;;;;;15.51;44.07;100552.38;5032331;28;19992;-68
2022/04/24 01:20:51;;;;;;;;;;;;;;;15.96;42.94;100555.25;5033018;28;20492;-70
2022/04/24 01:23:16;;;;;;;;;;;;;;;16.06;42.95;100549.84;5032225;28;20020;-69
2022/04/24 01:25:41;;;;;;;;;;;;;;;16.44;41.57;100556.69;5032452;28;20349;-68
2022/04/24 01:28:07;;;;;;;;;;;;;;;15.74;43.33;100552.75;5032348;28;19967;-68
2022/04/24 01:30:33;;;;;;;;;;;;;;;16.11;42.70;100549.06;5032644;28;19935;-67
2022/04/24 01:32:58;;;;;;;;;;;;;;;15.60;43.69;100558.94;5032572;28;19909;-67
2022/04/24 01:35:24;;;;;;;;;;;;;;;15.95;42.66;100550.94;5031667;28;19921;-67
2022/04/24 01:37:49;;;;;;;;;;;;;;;15.92;43.06;100556.06;5031984;28;19928;-67
2022/04/24 01:40:14;;;;;;;;;;;;;;;15.97;42.08;100548.78;5032111;28;20420;-67
2022/04/24 01:42:40;;;;;;;;;;;;;;;15.40;43.98;100554.22;5032420;28;19972;-66
2022/04/24 01:45:05;;;;;;;;;;;;;;;15.91;42.52;100551.72;5032545;28;19928;-68
2022/04/24 01:47:30;;;;;;;;;;;;;;;15.72;43.13;100549.50;5031939;28;19917;-68
2022/04/24 01:49:56;;;;;;;;;;;;;;;16.10;42.03;100550.13;5032002;28;19913;-67
2022/04/24 01:52:21;;;;;;;;;;;;;;;15.96;42.53;100549.03;5030575;28;20268;-67
2022/04/24 01:54:46;;;;;;;;;;;;;;;16.07;41.83;100554.22;5032300;28;20306;-67
2022/04/24 01:57:11;;;;;;;;;;;;;;;15.94;41.85;100554.69;5032284;28;19913;-68
2022/04/24 01:59:36;;;;;;;;;;;;;;;15.75;42.38;100551.69;5031946;28;20003;-67
2022/04/24 02:02:02;;;;;;;;;;;;;;;15.77;42.48;100554.94;5031802;28;20369;-68
2022/04/24 02:04:27;;;;;;;;;;;;;;;16.14;41.82;100546.63;5031819;28;20345;-67
2022/04/24 02:06:52;;;;;;;;;;;;;;;16.09;41.74;100546.63;5031769;28;20008;-67
2022/04/24 02:09:18;;;;;;;;;;;;;;;16.31;41.18;100549.88;5031602;28;19909;-67
2022/04/24 02:11:43;;;;;;;;;;;;;;;15.81;42.56;100552.50;5032020;28;19962;-67
2022/04/24 02:14:08;;;;;;;;;;;;;;;15.87;42.54;100556.88;5031828;28;20007;-67
2022/04/24 02:16:34;;;;;;;;;;;;;;;15.50;43.25;100554.31;5031887;28;20373;-68
2022/04/24 02:18:59;;;;;;;;;;;;;;;15.39;43.30;100554.50;5031606;28;20340;-67
2022/04/24 02:21:26;;;;;;;;;;;;;;;15.38;43.91;100558.25;5031381;28;19912;-67
2022/04/24 02:23:51;;;;;;;;;;;;;;;15.54;43.06;100554.59;5032209;28;20285;-68
2022/04/24 02:26:16;;;;;;;;;;;;;;;15.62;42.64;100554.06;5031660;28;19917;-67
2022/04/24 02:28:41;;;;;;;;;;;;;;;15.34;43.85;100552.56;5033418;28;19943;-67
2022/04/24 02:31:07;;;;;;;;;;;;;;;15.59;43.15;100550.00;5035393;28;20381;-68
2022/04/24 02:33:32;;;;;;;;;;;;;;;15.54;42.61;100552.69;5035268;28;19913;-67
2022/04/24 02:35:57;;;;;;;;;;;;;;;15.76;42.17;100547.09;5035578;28;19909;-67
2022/04/24 02:38:22;;;;;;;;;;;;;;;15.17;43.76;100549.25;5034885;28;19921;-69
2022/04/24 02:40:48;;;;;;;;;;;;;;;15.22;43.71;100549.25;5035305;28;19920;-67
2022/04/24 02:43:13;;;;;;;;;;;;;;;15.68;42.32;100545.69;5034837;28;19925;-67
2022/04/24 02:45:40;;;;;;;;;;;;;;;15.10;43.57;100556.75;5034438;28;19920;-66
2022/04/24 02:48:05;;;;;;;;;;;;;;;15.48;42.52;100552.94;5034994;28;19963;-66
2022/04/24 02:50:31;;;;;;;;;;;;;;;15.58;42.39;100559.22;5034138;28;20324;-67
2022/04/24 02:52:56;;;;;;;;;;;;;;;15.68;42.24;100555.72;5034057;28;19921;-69
2022/04/24 02:55:22;;;;;;;;;;;;;;;15.50;42.48;100550.78;5035114;28;19917;-67
2022/04/24 02:57:48;;;;;;;;;;;;;;;15.29;43.05;100557.16;5034791;28;19916;-70
2022/04/24 03:00:19;;;;;;;;;;;;;;;15.74;42.10;100557.38;5035252;28;19920;-68
2022/04/24 03:02:45;;;;;;;;;;;;;;;15.87;41.28;100556.88;5034891;28;20456;-68
2022/04/24 03:05:11;;;;;;;;;;;;;;;15.73;41.39;100547.59;5034570;28;20016;-69
2022/04/24 03:07:37;;;;;;;;;;;;;;;15.63;41.72;100551.09;5033888;28;19924;-68
2022/04/24 03:10:02;;;;;;;;;;;;;;;15.40;42.49;100559.63;5034406;28;19916;-68
2022/04/24 03:12:31;;;;;;;;;;;;;;;15.09;42.55;100555.13;5034392;28;19920;-67
2022/04/24 03:14:56;;;;;;;;;;;;;;;15.29;42.64;100546.31;5034547;28;19912;-67
2022/04/24 03:17:21;;;;;;;;;;;;;;;15.51;41.47;100549.69;5034105;28;19916;-68
2022/04/24 03:19:46;;;;;;;;;;;;;;;15.29;42.36;100554.44;5033768;28;19984;-68
2022/04/24 03:22:12;;;;;;;;;;;;;;;15.16;42.56;100557.59;5033854;28;19921;-69
2022/04/24 03:24:37;;;;;;;;;;;;;;;15.58;41.91;100559.22;5034112;28;20006;-67
2022/04/24 03:27:03;;;;;;;;;;;;;;;15.52;41.76;100557.56;5034450;28;20010;-69
2022/04/24 03:29:29;;;;;;;;;;;;;;;15.56;41.76;100555.97;5034202;28;20336;-67
2022/04/24 03:31:54;;;;;;;;;;;;;;;15.04;42.70;100560.50;5034482;28;19943;-68
2022/04/24 03:34:19;;;;;;;;;;;;;;;15.13;42.46;100552.72;5034159;28;20387;-68
2022/04/24 03:36:44;;;;;;;;;;;;;;;15.06;42.59;100563.75;5034045;28;20361;-68
2022/04/24 03:39:10;;;;;;;;;;;;;;;14.89;43.09;100555.81;5033317;28;19925;-66
2022/04/24 03:41:35;;;;;;;;;;;;;;;15.01;43.09;100558.34;5033611;28;19956;-67
2022/04/24 03:44:01;;;;;;;;;;;;;;;14.48;44.00;100559.28;5033830;28;19963;-67
2022/04/24 03:46:26;;;;;;;;;;;;;;;14.99;43.01;100560.47;5033787;28;20463;-67
2022/04/24 03:48:51;;;;;;;;;;;;;;;14.69;43.69;100550.25;5033896;28;19921;-68
2022/04/24 03:51:17;;;;;;;;;;;;;;;14.87;42.65;100547.16;5034214;28;19909;-68
2022/04/24 03:53:42;;;;;;;;;;;;;;;14.71;43.43;100553.53;5032296;28;19959;-67
2022/04/24 03:56:07;;;;;;;;;;;;;;;14.57;43.79;100560.44;5034145;28;19991;-68
2022/04/24 03:58:33;;;;;;;;;;;;;;;15.03;42.58;100555.34;5033499;28;19917;-67
2022/04/24 04:00:59;;;;;;;;;;;;;;;14.58;43.52;100561.25;5030994;28;19924;-67
2022/04/24 04:03:24;;;;;;;;;;;;;;;14.78;43.02;100559.50;5034070;28;19917;-68
2022/04/24 04:05:49;;;;;;;;;;;;;;;14.26;44.77;100555.81;5033975;28;20117;-67
2022/04/24 04:08:14;;;;;;;;;;;;;;;14.54;43.30;100562.84;5048887;28;19928;-67
2022/04/24 04:10:40;;;;;;;;;;;;;;;14.93;42.50;100561.53;5033205;28;19928;-67
2022/04/24 04:13:08;;;;;;;;;;;;;;;14.84;42.73;100558.47;5033486;28;19924;-67
2022/04/24 04:15:35;;;;;;;;;;;;;;;14.61;43.02;100558.84;5032993;28;19948;-67
2022/04/24 04:18:00;;;;;;;;;;;;;;;15.07;41.89;100557.28;5033715;28;19923;-68
2022/04/24 04:20:26;;;;;;;;;;;;;;;15.16;41.61;100563.00;5028539;28;19913;-67
2022/04/24 04:22:51;;;;;;;;;;;;;;;14.96;41.76;100559.09;5013740;28;19921;-67
2022/04/24 04:25:21;;;;;;;;;;;;;;;15.13;41.55;100572.50;5014033;28;19913;-66
2022/04/24 04:27:46;;;;;;;;;;;;;;;15.09;41.81;100570.56;5013655;28;19921;-67
2022/04/24 04:30:11;;;;;;;;;;;;;;;15.09;41.60;100571.38;5023931;28;20257;-67
2022/04/24 04:32:37;;;;;;;;;;;;;;;15.15;41.53;100566.81;5033347;28;19917;-69
2022/04/24 04:35:02;;;;;;;;;;;;;;;14.57;42.88;100571.25;5032744;28;19920;-67
2022/04/24 04:37:28;;;;;;;;;;;;;;;15.08;41.15;100575.16;5033120;28;19917;-68
2022/04/24 04:39:53;;;;;;;;;;;;;;;14.89;41.60;100569.34;5033332;28;19920;-68
2022/04/24 04:42:18;;;;;;;;;;;;;;;15.04;41.57;100574.03;5032980;28;19960;-68
2022/04/24 04:44:44;;;;;;;;;;;;;;;14.66;42.33;100583.22;5033325;28;20256;-68
2022/04/24 04:47:09;;;;;;;;;;;;;;;14.47;42.69;100581.97;5033549;28;19916;-68
2022/04/24 04:49:34;;;;;;;;;;;;;;;14.76;41.86;100574.41;5033579;28;20143;-68
2022/04/24 04:51:59;;;;;;;;;;;;;;;14.87;41.54;100589.63;5032557;28;20399;-67
2022/04/24 04:54:25;;;;;;;;;;;;;;;15.30;40.66;100588.53;5031533;28;19942;-68
2022/04/24 04:56:50;;;;;;;;;;;;;;;14.53;42.31;100585.53;5033467;28;19919;-67
2022/04/24 04:59:15;;;;;;;;;;;;;;;15.02;41.30;100591.63;5032799;28;19995;-67
2022/04/24 05:01:40;;;;;;;;;;;;;;;15.27;40.61;100589.88;5032988;28;19932;-68
2022/04/24 05:04:05;;;;;;;;;;;;;;;14.83;41.49;100589.31;5032671;28;19921;-68
2022/04/24 05:06:32;;;;;;;;;;;;;;;14.69;42.28;100598.13;5032650;28;19909;-67
2022/04/24 05:08:57;;;;;;;;;;;;;;;15.17;41.18;100594.44;5033095;28;19916;-68
2022/04/24 05:11:23;;;;;;;;;;;;;;;14.75;41.77;100603.31;5032909;28;19985;-67
2022/04/24 05:13:48;;;;;;;;;;;;;;;15.31;40.84;100604.50;5032855;28;19929;-69
2022/04/24 05:16:13;;;;;;;;;;;;;;;15.36;40.32;100614.56;5032570;28;19913;-68
2022/04/24 05:18:38;;;;;;;;;;;;;;;14.67;42.04;100611.91;5032687;28;19921;-67
2022/04/24 05:21:04;;;;;;;;;;;;;;;14.98;41.36;100617.56;5032846;28;20337;-69
2022/04/24 05:23:29;;;;;;;;;;;;;;;15.11;41.35;100617.13;5032401;28;20389;-66
2022/04/24 05:25:54;;;;;;;;;;;;;;;14.91;41.53;100618.63;5032567;28;20095;-68
2022/04/24 05:28:19;;;;;;;;;;;;;;;15.23;40.71;100613.16;5031843;28;19920;-68
2022/04/24 05:30:45;;;;;;;;;;;;;;;14.95;40.99;100610.78;5032206;28;19924;-69
2022/04/24 05:33:15;;;;;;;;;;;;;;;14.98;41.36;100614.88;5032958;28;19924;-67
2022/04/24 05:35:40;;;;;;;;;;;;;;;15.21;40.66;100618.03;5032463;28;19963;-69
2022/04/24 05:38:06;;;;;;;;;;;;;;;15.14;40.85;100616.59;5032394;28;19955;-67
2022/04/24 05:40:31;;;;;;;;;;;;;;;14.56;41.71;100626.44;5032413;28;19916;-69
2022/04/24 05:42:56;;;;;;;;;;;;;;;15.17;41.04;100621.50;5032216;28;20401;-69
2022/04/24 05:45:22;;;;;;;;;;;;;;;14.96;41.29;100626.75;5032363;28;19917;-68
2022/04/24 05:47:48;;;;;;;;;;;;;;;14.27;42.81;100630.41;5032468;28;19909;-68
2022/04/24 05:50:13;;;;;;;;;;;;;;;15.27;40.61;100630.47;5030917;28;19919;-69
2022/04/24 05:52:39;;;;;;;;;;;;;;;15.19;40.67;100630.19;5032150;28;19983;-68
2022/04/24 05:55:05;;;;;;;;;;;;;;;15.39;39.99;100638.44;5032158;28;19913;-67
2022/04/24 05:57:30;;;;;;;;;;;;;;;15.45;39.77;100640.13;5032287;28;19923;-69
2022/04/24 05:59:55;;;;;;;;;;;;;;;15.22;40.53;100635.88;5032873;28;20371;-68
2022/04/24 06:02:20;;;;;;;;;;;;;;;15.65;39.83;100632.09;5032189;28;20357;-67
2022/04/24 06:04:46;;;;;;;;;;;;;;;15.24;40.71;100647.25;5034307;28;19923;-68
2022/04/24 06:07:11;;;;;;;;;;;;;;;15.19;40.63;100643.72;5035854;28;19917;-67
2022/04/24 06:09:36;;;;;;;;;;;;;;;14.88;41.52;100639.94;5036092;28;19924;-67
2022/04/24 06:12:02;;;;;;;;;;;;;;;14.82;41.68;100636.38;5036549;28;19912;-67
2022/04/24 06:14:28;;;;;;;;;;;;;;;15.67;39.99;100648.91;5036285;28;19913;-68
2022/04/24 06:16:53;;;;;;;;;;;;;;;15.68;39.70;100651.34;5036182;28;19949;-67
2022/04/24 06:19:18;;;;;;;;;;;;;;;16.00;39.03;100651.22;5035807;28;19975;-67
2022/04/24 06:21:44;;;;;;;;;;;;;;;15.49;40.45;100643.91;5035923;28;19940;-68
2022/04/24 06:24:09;;;;;;;;;;;;;;;15.48;40.50;100647.72;5036240;28;19986;-70
2022/04/24 06:26:34;;;;;;;;;;;;;;;15.56;40.33;100641.81;5035537;28;19990;-67
2022/04/24 06:28:59;;;;;;;;;;;;;;;15.79;39.35;100644.91;5034784;28;19940;-66
2022/04/24 06:31:24;;;;;;;;;;;;;;;15.98;39.37;100641.75;5035216;28;19916;-68
2022/04/24 06:33:50;;;;;;;;;;;;;;;16.28;38.87;100639.94;5035015;28;20270;-67
2022/04/24 06:36:15;;;;;;;;;;;;;;;15.28;40.69;100642.97;5035707;28;19909;-67
2022/04/24 06:38:40;;;;;;;;;;;;;;;15.61;39.93;100633.69;5035052;28;19921;-69
2022/04/24 06:41:05;;;;;;;;;;;;;;;16.02;39.49;100637.41;5035161;28;20313;-69
2022/04/24 06:43:31;;;;;;;;;;;;;;;15.48;39.97;100637.69;5035434;28;20000;-70
2022/04/24 06:45:56;;;;;;;;;;;;;;;15.30;40.72;100629.97;5034985;28;19928;-68
2022/04/24 06:48:21;;;;;;;;;;;;;;;15.68;39.92;100639.72;5035126;28;19920;-70
2022/04/24 06:50:47;;;;;;;;;;;;;;;16.35;38.61;100648.59;5034958;28;19909;-69
2022/04/24 06:53:20;;;;;;;;;;;;;;;17.01;37.54;100648.72;5034125;28;19917;-68
2022/04/24 06:55:46;;;;;;;;;;;;;;;17.03;37.53;100644.66;5033101;28;20363;-68
2022/04/24 06:58:13;;;;;;;;;;;;;;;16.28;38.95;100642.63;5034513;28;19956;-68
2022/04/24 07:00:39;;;;;;;;;;;;;;;16.52;38.43;100651.13;5034674;28;19944;-67
2022/04/24 07:03:24;;;;;;;;;;;;;;;16.84;37.63;100645.47;5035238;28;20316;-67
2022/04/24 07:05:50;;;;;;;;;;;;;;;16.99;37.55;100651.72;5033603;28;19971;-69
2022/04/24 07:08:15;;;;;;;;;;;;;;;16.64;38.33;100649.81;5034467;28;19997;-66
2022/04/24 07:10:41;;;;;;;;;;;;;;;17.40;36.98;100636.19;5034632;28;20025;-67
2022/04/24 07:13:06;;;;;;;;;;;;;;;17.01;37.64;100643.28;5034300;28;19920;-70
2022/04/24 07:15:33;;;;;;;;;;;;;;;17.43;36.66;100647.31;5033963;28;19967;-69
2022/04/24 07:17:59;;;;;;;;;;;;;;;17.65;36.64;100643.50;5035012;28;19905;-68
2022/04/24 07:20:25;;;;;;;;;;;;;;;18.27;35.89;100646.50;5034487;28;19917;-69
2022/04/24 07:22:54;;;;;;;;;;;;;;;17.69;36.75;100653.53;5034016;28;20000;-68
2022/04/24 07:25:22;;;;;;;;;;;;;;;17.48;36.81;100650.06;5031847;28;19936;-68
2022/04/24 07:27:47;;;;;;;;;;;;;;;17.28;36.94;100649.25;5034263;28;19924;-67
2022/04/24 07:30:13;;;;;;;;;;;;;;;17.38;36.77;100649.22;5034687;28;19909;-70
2022/04/24 07:32:43;;;;;;;;;;;;;;;17.36;36.80;100656.84;5034013;28;20028;-67
2022/04/24 07:35:15;;;;;;;;;;;;;;;17.95;35.88;100649.63;5034039;28;19913;-68
2022/04/24 07:37:41;;;;;;;;;;;;;;;18.00;36.10;100648.81;5031218;28;19936;-70
2022/04/24 07:40:07;;;;;;;;;;;;;;;18.11;36.00;100650.38;5034359;28;19976;-68
2022/04/24 07:42:43;;;;;;;;;;;;;;;17.71;36.35;100656.00;5033818;28;19940;-70
2022/04/24 07:45:08;;;;;;;;;;;;;;;17.51;36.90;100657.66;5032647;28;19913;-70
2022/04/24 07:47:33;;;;;;;;;;;;;;;18.04;35.45;100650.69;5034121;28;19924;-67
2022/04/24 07:49:59;;;;;;;;;;;;;;;17.47;36.18;100653.03;5033917;28;19917;-70
2022/04/24 07:52:24;;;;;;;;;;;;;;;17.71;36.35;100643.19;5033536;28;19916;-68
2022/04/24 07:54:51;;;;;;;;;;;;;;;17.86;35.89;100656.75;5033922;28;19913;-67
2022/04/24 07:57:16;;;;;;;;;;;;;;;17.60;36.44;100665.25;5033845;28;20012;-68
2022/04/24 07:59:42;;;;;;;;;;;;;;;17.73;36.46;100648.38;5033669;28;19919;-67
2022/04/24 08:02:07;;;;;;;;;;;;;;;18.29;35.50;100647.03;5033761;28;19924;-68
2022/04/24 08:04:32;;;;;;;;;;;;;;;17.88;35.65;100654.56;5033506;28;19913;-67
2022/04/24 08:06:58;;;;;;;;;;;;;;;18.07;36.25;100657.47;5033394;28;19967;-68
2022/04/24 08:09:23;;;;;;;;;;;;;;;18.71;34.71;100660.13;5033157;28;19913;-67
2022/04/24 08:11:48;;;;;;;;;;;;;;;18.82;34.78;100653.50;5032789;28;20061;-67
2022/04/24 08:14:14;;;;;;;;;;;;;;;18.71;35.29;100654.69;5031939;28;19932;-67
2022/04/24 08:16:39;;;;;;;;;;;;;;;18.20;35.70;100651.44;5032262;28;20258;-68
2022/04/24 08:19:04;;;;;;;;;;;;;;;18.36;35.57;100650.25;5032334;28;20318;-68
2022/04/24 08:21:30;;;;;;;;;;;;;;;18.46;35.25;100650.22;5032046;28;19913;-68
2022/04/24 08:23:55;;;;;;;;;;;;;;;18.32;35.95;100652.72;5032629;28;19917;-68
2022/04/24 08:26:20;;;;;;;;;;;;;;;18.46;35.65;100657.56;5031790;28;19920;-68
2022/04/24 08:28:46;;;;;;;;;;;;;;;18.66;35.43;100655.53;5031988;28;19917;-68
2022/04/24 08:31:11;;;;;;;;;;;;;;;19.08;35.29;100658.50;5030383;28;19920;-68
2022/04/24 08:33:37;;;;;;;;;;;;;;;18.88;35.10;100650.47;5032299;28;19921;-67
2022/04/24 08:36:05;;;;;;;;;;;;;;;18.60;35.00;100662.09;5032650;28;19905;-66
2022/04/24 08:38:31;;;;;;;;;;;;;;;17.80;36.47;100657.03;5031635;28;19928;-67
2022/04/24 08:40:59;;;;;;;;;;;;;;;18.82;35.08;100645.34;5031957;28;19940;-68
2022/04/24 08:43:24;;;;;;;;;;;;;;;19.17;34.49;100654.03;5029268;28;20003;-68
2022/04/24 08:45:51;;;;;;;;;;;;;;;18.73;34.68;100652.50;5031457;28;19988;-66
2022/04/24 08:48:17;;;;;;;;;;;;;;;19.50;34.04;100651.59;5029726;28;19959;-67
2022/04/24 08:50:42;;;;;;;;;;;;;;;19.84;33.32;100641.38;5031311;28;19920;-67
2022/04/24 08:53:08;;;;;;;;;;;;;;;19.89;33.73;100644.84;5030266;28;20015;-66
2022/04/24 08:55:33;;;;;;;;;;;;;;;20.12;33.42;100645.94;5031419;28;19913;-67
2022/04/24 08:57:59;;;;;;;;;;;;;;;18.76;34.85;100652.75;5030930;28;19917;-66
2022/04/24 09:00:27;;;;;;;;;;;;;;;18.78;35.24;100645.09;5030877;28;19921;-67
2022/04/24 09:02:53;;;;;;;;;;;;;;;19.52;33.63;100649.38;5046757;28;20311;-65
2022/04/24 09:05:18;;;;;;;;;;;;;;;19.00;34.52;100658.28;5031289;28;19929;-67
2022/04/24 09:07:45;;;;;;;;;;;;;;;19.66;33.47;100651.13;5030958;28;19947;-68
2022/04/24 09:10:13;;;;;;;;;;;;;;;19.64;33.18;100652.50;5031194;28;19917;-67
2022/04/24 09:12:40;;;;;;;;;;;;;;;20.21;32.86;100662.47;5031383;28;20369;-67
2022/04/24 09:15:07;;;;;;;;;;;;;;;19.55;32.86;100674.16;5031360;28;20414;-68
2022/04/24 09:17:33;;;;;;;;;;;;;;;19.71;33.02;100661.97;5031119;28;20388;-67
2022/04/24 09:19:59;;;;;;;;;;;;;;;20.28;32.89;100663.75;5031072;28;19921;-68
2022/04/24 09:22:25;;;;;;;;;;;;;;;20.41;32.01;100659.47;5029246;28;20009;-68
2022/04/24 09:24:59;;;;;;;;;;;;;;;20.60;31.16;100660.31;5032449;28;19917;-66
2022/04/24 09:27:25;;;;;;;;;;;;;;;20.55;31.42;100674.03;5031842;28;19924;-67
2022/04/24 09:29:55;;;;;;;;;;;;;;;20.70;31.31;100657.41;5031409;28;19913;-68
2022/04/24 09:32:21;;;;;;;;;;;;;;;21.11;31.02;100661.13;5030753;28;20373;-66
2022/04/24 09:34:47;;;;;;;;;;;;;;;20.91;31.14;100662.25;5030725;28;20004;-67
2022/04/24 09:37:12;;;;;;;;;;;;;;;20.06;32.19;100661.56;5029250;28;20039;-67
2022/04/24 09:39:38;;;;;;;;;;;;;;;20.94;30.97;100667.13;5031290;28;19928;-65
2022/04/24 09:42:07;;;;;;;;;;;;;;;20.69;31.67;100656.63;5031259;28;20526;-65
2022/04/24 09:44:37;;;;;;;;;;;;;;;21.09;31.28;100673.50;5031338;28;19917;-65
2022/04/24 09:47:03;;;;;;;;;;;;;;;20.98;31.02;100672.81;5031657;28;19921;-67
2022/04/24 09:49:31;;;;;;;;;;;;;;;20.77;30.93;100674.25;5030219;28;19997;-66
2022/04/24 09:51:57;;;;;;;;;;;;;;;20.74;31.48;100674.81;5055811;28;19921;-65
2022/04/24 09:54:22;;;;;;;;;;;;;;;20.81;31.14;100667.88;5031303;28;19974;-65
2022/04/24 09:56:49;;;;;;;;;;;;;;;20.62;31.33;100671.72;5031389;28;20358;-67
2022/04/24 09:59:14;;;;;;;;;;;;;;;21.18;30.62;100668.97;5031521;28;20004;-65
2022/04/24 10:01:40;;;;;;;;;;;;;;;21.71;30.06;100668.25;5031735;28;19987;-66
2022/04/24 10:04:07;;;;;;;;;;;;;;;21.52;30.13;100672.97;5031553;28;19921;-65
2022/04/24 10:06:47;;;;;;;;;;;;;;;19.86;32.54;100669.16;5031458;28;19909;-66
2022/04/24 10:09:14;;;;;;;;;;;;;;;21.20;30.77;100670.28;5032240;28;19959;-68
2022/04/24 10:11:40;;;;;;;;;;;;;;;21.14;29.48;100670.66;5031603;28;19917;-68
2022/04/24 10:14:07;;;;;;;;;;;;;;;22.18;28.76;100661.56;5031706;28;20100;-66
2022/04/24 10:16:51;;;;;;;;;;;;;;;22.33;28.19;100663.97;5031549;28;19924;-71
2022/04/24 10:19:27;;;;;;;;;;;;;;;21.92;28.60;100663.22;5031784;28;19948;-67
2022/04/24 10:22:01;;;;;;;;;;;;;;;21.85;28.70;100660.09;5031519;28;19963;-67
2022/04/24 10:24:37;;;;;;;;;;;;;;;21.66;28.64;100654.66;5017394;28;19921;-66
2022/04/24 10:27:03;;;;;;;;;;;;;;;21.72;28.25;100671.78;5011287;28;19967;-66
2022/04/24 10:29:29;;;;;;;;;;;;;;;22.15;27.28;100661.38;5016072;28;19929;-70
2022/04/24 10:31:54;;;;;;;;;;;;;;;22.34;26.91;100656.59;5031098;28;19917;-69
2022/04/24 10:34:20;;;;;;;;;;;;;;;21.34;28.09;100659.38;5031267;28;19917;-67
2022/04/24 10:36:55;;;;;;;;;;;;;;;21.81;27.80;100654.41;5032846;28;20390;-69
2022/04/24 10:39:23;;;;;;;;;;;;;;;22.47;26.74;100653.81;5030759;28;19921;-69
2022/04/24 10:41:55;;;;;;;;;;;;;;;22.44;26.85;100651.69;5031596;28;19920;-66
2022/04/24 10:44:20;;;;;;;;;;;;;;;23.00;26.44;100644.91;5030920;28;19925;-69
2022/04/24 10:46:47;;;;;;;;;;;;;;;23.13;26.15;100652.25;5031122;28;20404;-70
2022/04/24 10:49:13;;;;;;;;;;;;;;;23.37;25.40;100647.28;5031996;28;20004;-67
2022/04/24 10:51:40;;;;;;;;;;;;;;;23.14;25.06;100651.13;5033545;28;20044;-68
2022/04/24 10:54:12;;;;;;;;;;;;;;;23.81;25.19;100649.06;5030419;28;19999;-67
2022/04/24 10:56:37;;;;;;;;;;;;;;;24.28;23.96;100637.28;5032753;28;19924;-66
2022/04/24 10:59:07;;;;;;;;;;;;;;;24.23;24.56;100642.94;5048487;28;19917;-67
2022/04/24 11:01:34;;;;;;;;;;;;;;;24.28;23.95;100640.03;5033013;28;19921;-65
2022/04/24 11:04:04;;;;;;;;;;;;;;;23.73;23.57;100644.34;5031435;28;19933;-69
2022/04/24 11:06:30;;;;;;;;;;;;;;;22.99;25.44;100648.78;5033349;28;19913;-66
2022/04/24 11:09:05;;;;;;;;;;;;;;;23.57;24.86;100654.16;5033045;28;19932;-67
2022/04/24 11:11:31;;;;;;;;;;;;;;;23.86;24.89;100644.25;5032106;28;19921;-68
2022/04/24 11:13:59;;;;;;;;;;;;;;;23.70;24.35;100642.25;5032580;28;20325;-68
2022/04/24 11:16:24;;;;;;;;;;;;;;;23.22;24.53;100639.41;5032814;28;19971;-66
2022/04/24 11:18:49;;;;;;;;;;;;;;;23.55;23.67;100648.97;5031011;28;19921;-67
2022/04/24 11:21:19;;;;;;;;;;;;;;;22.67;24.27;100644.34;5033564;28;19916;-67
2022/04/24 11:23:44;;;;;;;;;;;;;;;23.87;23.27;100651.38;5033148;28;19936;-69
2022/04/24 11:26:12;;;;;;;;;;;;;;;23.66;23.05;100649.50;5032570;28;19917;-68
2022/04/24 11:28:45;;;;;;;;;;;;;;;24.04;22.70;100645.94;5032782;28;20011;-68
2022/04/24 11:31:10;;;;;;;;;;;;;;;23.75;23.62;100636.63;5031604;28;20050;-65
2022/04/24 11:33:36;;;;;;;;;;;;;;;24.30;23.64;100638.56;5032603;28;20004;-67
2022/04/24 11:36:04;;;;;;;;;;;;;;;23.73;23.10;100628.72;5033035;28;19909;-67
2022/04/24 11:38:30;;;;;;;;;;;;;;;23.76;22.63;100639.06;5031385;28;19925;-66
2022/04/24 11:40:56;;;;;;;;;;;;;;;24.09;22.37;100634.84;5032715;28;19924;-65
2022/04/24 11:43:21;;;;;;;;;;;;;;;24.00;23.43;100630.44;5032350;28;20316;-66
2022/04/24 11:51:18;;;;;;;;;;;;;;;25.31;22.23;100629.81;5032730;28;19950;-70
2022/04/24 11:53:44;;;;;;;;;;;;;;;24.70;22.59;100638.44;5032988;28;20359;-67
2022/04/24 11:56:13;;;;;;;;;;;;;;;24.01;23.45;100638.34;5031667;28;19913;-67
2022/04/24 11:58:39;;;;;;;;;;;;;;;24.43;23.10;100640.38;5030982;28;19927;-66
2022/04/24 12:01:10;;;;;;;;;;;;;;;23.51;23.39;100637.81;5031415;28;19924;-67
2022/04/24 12:03:36;;;;;;;;;;;;;;;23.89;23.10;100638.13;5032483;28;19913;-66
2022/04/24 12:06:06;;;;;;;;;;;;;;;23.97;23.26;100637.34;5032616;28;20483;-66
2022/04/24 12:08:49;;;;;;;;;;;;;;;24.54;22.29;100623.56;5023331;28;19921;-66
2022/04/24 12:11:24;;;;;;;;;;;;;;;25.38;22.52;100634.78;5027733;28;19971;-66
2022/04/24 12:14:03;;;;;;;;;;;;;;;25.35;20.94;100639.03;5028365;28;19913;-65
2022/04/24 12:16:29;;;;;;;;;;;;;;;25.58;21.63;100636.84;5028885;28;19949;-67
2022/04/24 12:18:58;;;;;;;;;;;;;;;25.49;21.40;100645.16;5043946;28;19932;-66
2022/04/24 12:21:24;;;;;;;;;;;;;;;24.69;21.33;100628.56;5026555;28;19916;-67
2022/04/24 12:23:53;;;;;;;;;;;;;;;24.37;21.29;100640.88;5030311;28;20012;-67
2022/04/24 12:26:18;;;;;;;;;;;;;;;24.37;21.07;100640.88;5029461;28;19928;-67
2022/04/24 12:28:44;;;;;;;;;;;;;;;24.06;21.89;100626.41;5029048;28;19920;-68
2022/04/24 12:31:27;;;;;;;;;;;;;;;24.34;20.67;100638.75;5027455;28;19917;-65
2022/04/24 12:33:56;;;;;;;;;;;;;;;24.78;20.69;100629.41;5028643;28;19917;-66
2022/04/24 12:36:22;;;;;;;;;;;;;;;24.93;20.80;100631.66;5028473;28;19905;-65